Time;durP1;ratioP1;P1;durP2;ratioP2;P2;SDS_P1;SDS_P2;PMS_P1;PMS_P2;Temp;Humidity;BMP_temperature;BMP_pressure;BME280_temperature;BME280_humidity;BME280_pressure;Samples;Min_cycle;Max_cycle;Signal;HPM_P1;HPM_P2
2022/08/30 00:02:11;;;;;;;20.02;13.00;;;;;;;23.49;71.05;99629.28;1753010;80;21073;-73
2022/08/30 00:04:38;;;;;;;15.28;12.75;;;;;;;23.44;71.26;99630.28;1734858;81;21496;-68
2022/08/30 00:07:05;;;;;;;17.40;12.07;;;;;;;23.40;71.52;99629.89;1736098;81;20968;-74
2022/08/30 00:09:32;;;;;;;16.17;11.50;;;;;;;23.37;71.86;99636.84;1737116;81;20996;-78
2022/08/30 00:11:59;;;;;;;16.87;12.55;;;;;;;23.34;71.94;99625.17;1738084;82;21083;-71
2022/08/30 00:14:26;;;;;;;20.10;13.72;;;;;;;23.32;72.01;99626.06;1751214;81;21059;-74
2022/08/30 00:16:53;;;;;;;20.88;12.33;;;;;;;23.32;72.13;99625.26;1752540;81;21316;-75
2022/08/30 00:19:19;;;;;;;15.55;12.63;;;;;;;23.29;72.23;99625.38;1743567;81;20969;-73
2022/08/30 00:21:46;;;;;;;21.07;13.35;;;;;;;23.27;72.41;99624.89;1752666;81;21036;-70
2022/08/30 00:24:14;;;;;;;17.48;12.40;;;;;;;23.22;72.64;99625.09;1739256;81;20988;-70
2022/08/30 00:26:41;;;;;;;16.73;13.60;;;;;;;23.20;72.80;99622.47;1734162;81;21196;-71
2022/08/30 00:29:07;;;;;;;17.92;12.23;;;;;;;23.17;73.00;99622.55;1735291;82;21111;-71
2022/08/30 00:31:34;;;;;;;15.75;12.65;;;;;;;23.14;73.27;99626.55;1730319;82;20945;-71
2022/08/30 00:34:01;;;;;;;14.03;11.80;;;;;;;23.10;73.56;99627.79;1740398;82;21010;-69
2022/08/30 00:36:27;;;;;;;14.55;11.70;;;;;;;23.07;73.71;99625.69;1741375;81;21023;-72
2022/08/30 00:38:54;;;;;;;15.85;12.55;;;;;;;23.02;73.96;99628.06;1743074;81;20978;-70
2022/08/30 00:41:21;;;;;;;17.70;12.70;;;;;;;22.98;74.04;99620.84;1743012;82;21529;-70
2022/08/30 00:43:48;;;;;;;21.85;13.25;;;;;;;22.95;74.21;99622.89;1730715;82;21000;-70
2022/08/30 00:46:14;;;;;;;14.80;12.30;;;;;;;22.90;74.40;99626.64;1727560;82;21500;-70
2022/08/30 00:48:44;;;;;;;24.80;13.98;;;;;;;22.87;74.52;99628.69;1727586;83;21020;-71
2022/08/30 00:51:11;;;;;;;13.20;11.83;;;;;;;22.84;74.70;99620.30;1726967;82;21584;-72
2022/08/30 00:53:41;;;;;;;17.65;12.35;;;;;;;22.82;74.79;99629.44;1725834;82;21259;-72
2022/08/30 00:56:08;;;;;;;17.60;12.35;;;;;;;22.82;74.84;99628.06;1727625;82;21572;-70
2022/08/30 00:58:39;;;;;;;17.25;12.45;;;;;;;22.80;75.08;99626.21;1708912;83;21059;-71
2022/08/30 01:01:05;;;;;;;16.37;13.22;;;;;;;22.78;75.04;99633.39;1725962;82;21104;-71
2022/08/30 01:03:33;;;;;;;16.15;14.05;;;;;;;22.76;75.14;99637.61;1726071;82;21096;-69
2022/08/30 01:06:00;;;;;;;23.38;14.90;;;;;;;22.75;75.21;99629.95;1727820;83;21295;-70
2022/08/30 01:08:27;;;;;;;16.37;12.88;;;;;;;22.70;75.31;99627.94;1727957;83;21501;-70
2022/08/30 01:10:56;;;;;;;14.00;12.00;;;;;;;22.68;75.36;99637.88;1726141;82;21068;-70
2022/08/30 01:13:23;;;;;;;14.18;11.95;;;;;;;22.65;75.60;99635.78;1734403;82;20973;-69
2022/08/30 01:15:50;;;;;;;16.60;12.40;;;;;;;22.61;75.77;99643.87;1722812;82;21002;-69
2022/08/30 01:18:17;;;;;;;16.67;13.75;;;;;;;22.58;75.86;99645.11;1743217;82;21132;-71
2022/08/30 01:21:00;;;;;;;20.30;13.05;;;;;;;22.56;75.98;99647.37;1739441;82;21060;-72
2022/08/30 01:23:26;;;;;;;15.37;13.07;;;;;;;22.52;76.19;99656.02;1727206;82;21032;-72
2022/08/30 01:25:53;;;;;;;17.87;13.18;;;;;;;22.46;76.38;99651.28;1728693;81;21016;-70
2022/08/30 01:28:24;;;;;;;16.17;12.07;;;;;;;22.41;76.56;99653.40;1708338;83;21083;-73
2022/08/30 01:30:51;;;;;;;21.23;11.65;;;;;;;22.34;76.84;99655.30;1724456;82;22657;-71
2022/08/30 01:33:21;;;;;;;17.10;13.10;;;;;;;22.31;77.10;99644.97;1713603;82;20934;-74
2022/08/30 01:35:59;;;;;;;15.60;12.47;;;;;;;22.28;77.34;99641.53;1715382;83;21557;-71
2022/08/30 01:38:30;;;;;;;15.38;13.20;;;;;;;22.25;77.52;99644.13;1715491;83;21041;-72
2022/08/30 01:41:22;;;;;;;17.05;13.68;;;;;;;22.19;77.76;99636.66;1699423;83;21030;-71
2022/08/30 01:43:50;;;;;;;18.35;13.53;;;;;;;22.15;77.99;99637.08;1715336;83;21104;-72
2022/08/30 01:46:18;;;;;;;14.33;12.82;;;;;;;22.10;78.43;99639.99;1715378;83;21028;-72
2022/08/30 01:48:46;;;;;;;17.87;13.70;;;;;;;22.05;78.71;99634.69;1715512;83;20979;-71
2022/08/30 01:51:13;;;;;;;15.45;13.18;;;;;;;22.04;79.04;99631.70;1714986;82;20919;-70
2022/08/30 01:53:41;;;;;;;15.68;12.55;;;;;;;22.03;79.25;99638.31;1713899;82;21060;-71
2022/08/30 01:56:08;;;;;;;13.43;12.00;;;;;;;22.02;79.31;99628.47;1715506;82;21347;-73
2022/08/30 01:58:35;;;;;;;19.25;14.18;;;;;;;22.02;79.40;99639.43;1713988;82;21052;-72
2022/08/30 02:01:03;;;;;;;21.15;15.32;;;;;;;21.87;80.71;99635.25;1713733;82;21009;-72
2022/08/30 02:03:33;;;;;;;17.70;14.38;;;;;;;21.69;82.01;99641.33;1699101;83;21040;-72
2022/08/30 02:06:04;;;;;;;17.00;14.55;;;;;;;21.60;82.74;99637.80;1715451;83;21089;-72
2022/08/30 02:08:31;;;;;;;22.20;15.53;;;;;;;21.53;83.20;99637.50;1710835;83;21087;-74
2022/08/30 02:10:59;;;;;;;18.37;14.10;;;;;;;21.47;83.82;99641.53;1714790;82;21595;-71
2022/08/30 02:13:26;;;;;;;19.10;15.50;;;;;;;21.45;84.16;99650.61;1714319;82;20939;-72
2022/08/30 02:15:54;;;;;;;15.75;14.15;;;;;;;21.43;84.44;99650.70;1715729;83;21034;-72
2022/08/30 02:18:23;;;;;;;17.52;13.55;;;;;;;21.54;83.75;99652.78;1715568;82;21014;-73
2022/08/30 02:20:50;;;;;;;14.63;12.07;;;;;;;21.60;83.43;99652.05;1700843;83;21900;-73
2022/08/30 02:23:18;;;;;;;18.75;13.85;;;;;;;21.61;83.32;99649.00;1687539;82;21493;-72
2022/08/30 02:25:45;;;;;;;16.55;14.38;;;;;;;21.63;83.17;99656.31;1686858;84;21072;-73
2022/08/30 02:28:12;;;;;;;19.10;15.75;;;;;;;21.52;84.17;99648.77;1713412;82;20996;-73
2022/08/30 02:30:39;;;;;;;16.30;14.60;;;;;;;21.42;84.79;99651.27;1714582;82;21140;-73
2022/08/30 02:33:05;;;;;;;26.33;15.63;;;;;;;21.50;84.22;99651.02;1751384;81;21800;-74
2022/08/30 02:35:32;;;;;;;19.50;15.25;;;;;;;21.53;84.01;99649.82;1714198;82;21034;-73
2022/08/30 02:37:59;;;;;;;21.65;14.35;;;;;;;21.55;83.99;99650.84;1753433;81;21552;-71
2022/08/30 02:40:25;;;;;;;16.50;14.10;;;;;;;21.57;84.11;99658.99;1736593;81;21051;-74
2022/08/30 02:42:52;;;;;;;15.78;14.05;;;;;;;21.55;84.29;99653.02;1751958;81;21057;-72
2022/08/30 02:45:19;;;;;;;24.18;15.05;;;;;;;21.54;84.39;99658.25;1733239;82;21209;-72
2022/08/30 02:47:46;;;;;;;22.73;16.73;;;;;;;21.54;84.58;99657.44;1718143;81;21039;-73
2022/08/30 02:50:14;;;;;;;22.07;14.87;;;;;;;21.53;84.56;99662.14;1752983;81;21505;-73
2022/08/30 02:52:40;;;;;;;16.70;13.88;;;;;;;21.54;84.67;99666.45;1747898;81;21044;-73
2022/08/30 02:55:09;;;;;;;17.02;14.85;;;;;;;21.56;84.66;99676.53;1755981;81;21521;-71
2022/08/30 02:57:39;;;;;;;19.62;14.90;;;;;;;21.58;84.57;99674.85;1765421;81;21268;-74
2022/08/30 03:00:08;;;;;;;19.75;15.43;;;;;;;21.63;84.50;99681.53;1733561;82;21016;-72
2022/08/30 03:02:35;;;;;;;16.67;14.20;;;;;;;21.68;84.14;99675.86;1734947;81;21531;-74
2022/08/30 03:05:03;;;;;;;21.48;15.55;;;;;;;21.73;83.92;99680.62;1742649;81;21073;-74
2022/08/30 03:07:30;;;;;;;16.27;14.13;;;;;;;21.77;83.65;99682.16;1713418;82;21071;-73
2022/08/30 03:09:57;;;;;;;18.15;13.13;;;;;;;21.82;83.32;99682.00;1706473;84;21643;-73
2022/08/30 03:12:24;;;;;;;17.50;14.95;;;;;;;21.87;83.13;99686.50;1707597;82;21563;-73
2022/08/30 03:14:51;;;;;;;20.40;14.83;;;;;;;21.92;82.83;99680.86;1734791;82;21094;-72
2022/08/30 03:17:18;;;;;;;18.17;14.05;;;;;;;21.92;82.64;99689.07;1733005;81;20933;-72
2022/08/30 03:19:45;;;;;;;17.82;14.13;;;;;;;21.89;82.62;99689.14;1734401;81;21508;-73
2022/08/30 03:22:11;;;;;;;18.00;13.35;;;;;;;21.85;82.73;99686.81;1734876;82;21144;-73
2022/08/30 03:24:39;;;;;;;16.23;12.65;;;;;;;21.82;82.84;99688.84;1734602;82;21042;-73
2022/08/30 03:27:06;;;;;;;19.52;12.68;;;;;;;21.79;83.02;99690.03;1733069;81;20948;-73
2022/08/30 03:29:33;;;;;;;14.80;13.30;;;;;;;21.75;83.11;99687.14;1734752;82;21024;-72
2022/08/30 03:32:00;;;;;;;17.57;13.05;;;;;;;21.73;83.27;99696.23;1729538;82;21040;-73
2022/08/30 03:34:27;;;;;;;16.07;12.82;;;;;;;21.72;83.34;99699.56;1715828;83;21038;-73
2022/08/30 03:36:54;;;;;;;15.53;12.73;;;;;;;21.71;83.49;99696.58;1719942;82;21027;-72
2022/08/30 03:39:22;;;;;;;16.75;14.25;;;;;;;21.69;83.63;99704.86;1729561;82;21656;-74
2022/08/30 03:41:48;;;;;;;16.50;13.45;;;;;;;21.66;83.76;99697.30;1716827;83;21559;-73
2022/08/30 03:44:15;;;;;;;14.23;12.78;;;;;;;21.62;84.02;99701.82;1717483;83;21115;-73
2022/08/30 03:46:42;;;;;;;13.95;12.47;;;;;;;21.58;84.30;99705.74;1716682;83;21905;-74
2022/08/30 03:49:09;;;;;;;16.02;12.63;;;;;;;21.51;84.70;99704.06;1670052;84;21076;-72
2022/08/30 03:51:36;;;;;;;14.33;12.45;;;;;;;21.44;85.23;99721.52;1718078;83;21139;-73
2022/08/30 03:54:03;;;;;;;16.05;12.68;;;;;;;21.37;85.52;99707.52;1716886;83;20961;-73
2022/08/30 03:56:30;;;;;;;13.22;11.30;;;;;;;21.29;86.05;99714.58;1717431;83;21314;-77
2022/08/30 03:58:56;;;;;;;14.23;12.70;;;;;;;21.24;86.47;99711.22;1718242;83;21226;-74
2022/08/30 04:01:23;;;;;;;15.10;13.53;;;;;;;21.16;86.81;99719.63;1716269;83;21000;-74
2022/08/30 04:03:51;;;;;;;16.07;12.75;;;;;;;21.10;87.38;99720.09;1715423;83;21035;-74
2022/08/30 04:06:18;;;;;;;14.73;12.63;;;;;;;21.03;88.03;99721.91;1676847;85;21043;-72
2022/08/30 04:08:44;;;;;;;17.77;12.20;;;;;;;21.00;88.24;99722.56;1718461;83;21068;-73
2022/08/30 04:11:15;;;;;;;15.88;13.00;;;;;;;20.98;88.54;99723.42;1718238;83;21510;-72
2022/08/30 04:13:42;;;;;;;18.73;13.72;;;;;;;20.95;88.85;99738.30;1717834;83;20996;-72
2022/08/30 04:16:09;;;;;;;14.95;13.40;;;;;;;20.87;89.30;99757.64;1742742;82;21054;-72
2022/08/30 04:18:36;;;;;;;19.27;13.35;;;;;;;20.78;89.93;99731.64;1731038;82;21104;-73
2022/08/30 04:21:03;;;;;;;15.43;13.78;;;;;;;20.70;90.46;99752.11;1748082;81;21574;-75
2022/08/30 04:23:31;;;;;;;18.37;14.30;;;;;;;20.62;91.23;99745.50;1736559;82;39118;-73
2022/08/30 04:25:59;;;;;;;16.82;15.23;;;;;;;20.57;91.43;99736.08;1726375;82;21552;-74
2022/08/30 04:28:26;;;;;;;15.88;13.30;;;;;;;20.57;91.66;99746.20;1745045;82;21056;-73
2022/08/30 04:30:52;;;;;;;20.20;16.02;;;;;;;20.55;91.98;99753.89;1738536;82;21415;-73
2022/08/30 04:33:19;;;;;;;22.37;13.83;;;;;;;20.51;92.25;99755.09;1730567;81;21118;-74
2022/08/30 04:35:48;;;;;;;20.80;15.05;;;;;;;20.47;92.68;99756.84;1732906;81;21517;-74
2022/08/30 04:38:15;;;;;;;18.73;14.90;;;;;;;20.41;93.05;99745.23;1742912;81;21400;-74
2022/08/30 04:40:44;;;;;;;24.30;16.25;;;;;;;20.39;93.53;99758.38;1743527;81;21101;-73
2022/08/30 04:43:11;;;;;;;18.48;15.25;;;;;;;20.35;93.84;99758.77;1734767;82;21008;-74
2022/08/30 04:45:39;;;;;;;18.77;16.65;;;;;;;20.32;94.15;99751.77;1743427;81;21107;-73
2022/08/30 04:48:07;;;;;;;22.77;15.15;;;;;;;20.30;94.36;99771.72;1752862;81;21791;-74
2022/08/30 04:50:35;;;;;;;21.82;16.80;;;;;;;20.26;94.64;99768.81;1733835;81;20979;-74
2022/08/30 04:53:04;;;;;;;15.53;13.93;;;;;;;20.23;94.71;99761.81;1733425;81;21021;-74
2022/08/30 04:55:32;;;;;;;19.20;17.17;;;;;;;20.22;95.00;99759.63;1734592;81;21036;-75
2022/08/30 04:57:59;;;;;;;23.12;16.80;;;;;;;20.20;95.17;99761.85;1734956;81;21076;-74
2022/08/30 05:00:26;;;;;;;18.30;15.90;;;;;;;20.20;95.20;99754.22;1713840;82;21068;-75
2022/08/30 05:02:53;;;;;;;18.87;15.00;;;;;;;20.28;94.94;99773.41;1705131;84;21075;-76
2022/08/30 05:08:13;;;;;;;20.30;15.50;;;;;;;20.31;95.12;99761.08;1738544;81;21069;-71
2022/08/30 05:10:42;;;;;;;15.70;14.07;;;;;;;20.40;94.79;99763.30;1734625;82;21061;-72
2022/08/30 05:13:09;;;;;;;17.92;15.20;;;;;;;20.45;94.49;99760.44;1735206;81;21076;-72
2022/08/30 05:15:36;;;;;;;19.42;14.45;;;;;;;20.50;94.12;99767.69;1734045;81;21007;-72
2022/08/30 05:18:03;;;;;;;15.68;13.70;;;;;;;20.52;93.81;99761.36;1734793;81;21021;-71
2022/08/30 05:20:30;;;;;;;16.77;13.38;;;;;;;20.56;93.42;99765.08;1734998;81;21043;-73
2022/08/30 05:22:57;;;;;;;15.80;14.10;;;;;;;20.63;93.12;99759.39;1734853;82;21076;-70
2022/08/30 05:25:27;;;;;;;20.10;14.35;;;;;;;20.66;92.74;99762.08;1733056;81;21513;-71
2022/08/30 05:27:54;;;;;;;18.30;12.98;;;;;;;20.71;92.23;99760.02;1735097;82;20995;-71
2022/08/30 05:30:22;;;;;;;15.48;13.83;;;;;;;20.79;91.87;99757.06;1718760;81;20984;-71
2022/08/30 05:32:49;;;;;;;15.20;13.60;;;;;;;20.85;91.31;99763.45;1738452;81;21058;-70
2022/08/30 05:35:17;;;;;;;14.70;13.32;;;;;;;20.90;90.48;99757.03;1735000;81;21099;-71
2022/08/30 05:37:45;;;;;;;13.62;12.23;;;;;;;20.89;89.90;99755.41;1734904;82;21261;-70
2022/08/30 05:40:12;;;;;;;15.45;12.70;;;;;;;20.89;89.81;99762.25;1734748;81;21082;-70
2022/08/30 05:42:41;;;;;;;18.57;13.20;;;;;;;20.90;89.57;99762.50;1735691;82;21093;-71
2022/08/30 05:45:12;;;;;;;15.45;13.03;;;;;;;20.94;89.39;99760.73;1735961;81;21000;-70
2022/08/30 05:47:39;;;;;;;14.40;12.95;;;;;;;20.96;88.79;99759.84;1715891;82;21090;-72
2022/08/30 05:50:08;;;;;;;12.60;11.40;;;;;;;21.01;88.61;99764.36;1735823;82;21722;-73
2022/08/30 05:52:38;;;;;;;13.03;11.73;;;;;;;21.05;88.24;99768.09;1714283;82;21090;-71
2022/08/30 05:55:07;;;;;;;18.00;12.10;;;;;;;21.09;87.74;99764.97;1713909;82;21004;-71
2022/08/30 05:57:36;;;;;;;15.43;10.65;;;;;;;21.14;87.41;99767.59;1735325;82;20953;-71
2022/08/30 06:00:07;;;;;;;16.00;11.15;;;;;;;21.19;87.06;99760.61;1728500;81;21448;-71
2022/08/30 06:02:35;;;;;;;10.30;9.30;;;;;;;21.22;86.91;99759.40;1708596;82;25621;-73
2022/08/30 06:05:03;;;;;;;10.03;9.03;;;;;;;21.29;85.61;99773.98;1732567;81;21091;-72
2022/08/30 06:07:31;;;;;;;13.08;10.32;;;;;;;21.34;85.21;99773.84;1731990;82;21606;-72
2022/08/30 06:09:58;;;;;;;12.70;9.70;;;;;;;21.38;84.73;99772.07;1711782;81;21021;-72
2022/08/30 06:12:31;;;;;;;15.63;9.05;;;;;;;21.41;84.44;99759.67;1714791;82;21031;-72
2022/08/30 06:14:58;;;;;;;9.08;8.18;;;;;;;21.44;84.30;99761.20;1707850;82;21503;-73
2022/08/30 06:17:28;;;;;;;9.25;8.30;;;;;;;21.48;83.89;99762.75;1663725;84;21595;-73
2022/08/30 06:19:56;;;;;;;10.13;9.23;;;;;;;21.52;83.60;99754.14;1724612;82;21074;-71
2022/08/30 06:22:23;;;;;;;9.90;8.88;;;;;;;21.56;83.11;99764.13;1705344;83;21094;-71
2022/08/30 06:24:50;;;;;;;16.82;8.30;;;;;;;21.61;82.86;99746.17;1729811;81;21092;-73
2022/08/30 06:27:16;;;;;;;10.35;9.40;;;;;;;21.64;82.55;99756.47;1734965;82;21753;-71
2022/08/30 06:29:43;;;;;;;9.83;8.75;;;;;;;21.68;82.42;99746.48;1734462;82;21010;-73
2022/08/30 06:32:11;;;;;;;9.03;8.13;;;;;;;21.73;81.99;99750.99;1734859;82;21522;-71
2022/08/30 06:34:38;;;;;;;10.60;7.85;;;;;;;21.78;81.59;99761.78;1711558;81;21072;-71
2022/08/30 06:37:05;;;;;;;9.08;8.18;;;;;;;21.83;80.94;99761.62;1709723;82;21044;-72
2022/08/30 06:39:33;;;;;;;10.00;7.72;;;;;;;21.88;79.54;99775.72;1734917;82;21746;-70
2022/08/30 06:42:00;;;;;;;7.53;6.92;;;;;;;21.91;78.99;99774.53;1723126;81;20988;-71
2022/08/30 06:44:29;;;;;;;13.00;7.40;;;;;;;21.95;78.29;99769.23;1750138;81;21079;-72
2022/08/30 06:46:56;;;;;;;7.97;7.20;;;;;;;21.98;77.95;99768.02;1734459;82;21056;-72
2022/08/30 06:49:22;;;;;;;8.45;7.45;;;;;;;22.01;77.68;99780.28;1733072;81;21068;-71
2022/08/30 06:51:50;;;;;;;7.95;7.10;;;;;;;22.04;77.63;99757.70;1709835;84;21124;-72
2022/08/30 06:54:16;;;;;;;8.08;7.35;;;;;;;22.08;77.55;99778.64;1734954;82;21178;-71
2022/08/30 06:56:43;;;;;;;8.48;7.53;;;;;;;22.15;77.23;99765.84;1734043;81;21012;-70
2022/08/30 06:59:09;;;;;;;7.33;6.62;;;;;;;22.26;77.02;99773.13;1733598;81;21575;-72
2022/08/30 07:01:36;;;;;;;8.98;7.17;;;;;;;22.38;76.35;99777.39;1734836;82;21126;-72
2022/08/30 07:04:03;;;;;;;6.80;6.20;;;;;;;22.44;76.00;99764.58;1734803;81;21204;-73
2022/08/30 07:06:31;;;;;;;8.18;7.37;;;;;;;22.51;75.64;99771.72;1734674;82;20976;-70
2022/08/30 07:08:58;;;;;;;8.00;6.42;;;;;;;22.55;75.26;99765.81;1714066;81;21012;-77
2022/08/30 07:11:34;;;;;;;10.48;7.05;;;;;;;22.59;74.98;99768.13;1707819;82;21268;-74
2022/08/30 07:14:02;;;;;;;7.83;7.03;;;;;;;22.68;74.62;99765.95;1733964;82;21070;-70
2022/08/30 07:16:29;;;;;;;10.28;6.80;;;;;;;22.76;73.95;99764.57;1734967;82;21138;-71
2022/08/30 07:18:57;;;;;;;6.75;6.20;;;;;;;22.86;73.57;99767.52;1734845;82;20998;-73
2022/08/30 07:21:31;;;;;;;14.85;6.40;;;;;;;22.94;72.37;99770.21;1734340;81;21049;-71
2022/08/30 07:23:59;;;;;;;8.30;6.15;;;;;;;22.99;71.13;99778.26;1734895;82;20967;-72
2022/08/30 07:26:30;;;;;;;6.75;5.87;;;;;;;23.02;70.31;99772.70;1740684;81;21079;-72
2022/08/30 07:28:57;;;;;;;6.72;6.03;;;;;;;23.04;70.45;99783.56;1709793;82;21033;-71
2022/08/30 07:31:24;;;;;;;6.72;5.50;;;;;;;23.08;70.14;99780.14;1709867;83;21527;-72
2022/08/30 07:33:51;;;;;;;8.78;6.58;;;;;;;23.08;69.82;99773.29;1702920;84;21031;-73
2022/08/30 07:36:18;;;;;;;7.62;6.40;;;;;;;23.10;69.72;99771.84;1697325;84;20967;-72
2022/08/30 07:38:45;;;;;;;6.40;5.35;;;;;;;23.14;69.50;99775.53;1705462;83;21020;-71
2022/08/30 07:41:21;;;;;;;6.67;5.28;;;;;;;23.22;68.17;99791.70;1711821;82;21025;-73
2022/08/30 07:43:47;;;;;;;5.22;4.78;;;;;;;23.25;67.15;99786.38;1711660;83;21624;-76
2022/08/30 07:46:14;;;;;;;4.87;4.47;;;;;;;23.27;66.35;99796.44;1711829;83;21549;-73
2022/08/30 07:48:41;;;;;;;5.53;5.03;;;;;;;23.26;65.38;99792.07;1701458;83;21078;-71
2022/08/30 07:51:16;;;;;;;9.73;5.58;;;;;;;23.27;65.37;99776.41;1697283;84;21091;-71
2022/08/30 07:53:43;;;;;;;6.05;5.20;;;;;;;23.29;65.22;99781.83;1697454;84;21782;-74
2022/08/30 07:56:09;;;;;;;5.83;4.87;;;;;;;23.35;65.10;99794.80;1697177;84;21013;-73
2022/08/30 07:58:36;;;;;;;7.22;4.47;;;;;;;23.38;64.59;99789.44;1696965;83;21068;-75
2022/08/30 08:01:10;;;;;;;7.87;4.90;;;;;;;23.41;64.66;99779.15;1680141;84;21025;-72
2022/08/30 08:03:39;;;;;;;5.55;5.05;;;;;;;23.49;64.29;99794.01;1695239;83;21053;-73
2022/08/30 08:06:07;;;;;;;5.90;5.00;;;;;;;23.56;63.33;99778.36;1658581;85;21051;-72
2022/08/30 08:08:34;;;;;;;4.83;4.45;;;;;;;23.62;63.26;99791.56;1671815;84;21532;-70
2022/08/30 08:11:12;;;;;;;11.80;5.83;;;;;;;23.68;62.84;99784.75;1695521;84;20972;-72
2022/08/30 08:13:41;;;;;;;7.75;5.53;;;;;;;23.72;62.84;99773.32;1695536;84;21075;-71
2022/08/30 08:16:07;;;;;;;5.58;4.70;;;;;;;23.80;62.16;99775.19;1687441;84;21026;-72
2022/08/30 08:18:34;;;;;;;6.37;4.58;;;;;;;23.88;61.77;99784.52;1716666;83;21216;-71
2022/08/30 08:21:00;;;;;;;5.12;4.08;;;;;;;23.95;60.64;99792.20;1717729;82;21053;-71
2022/08/30 08:23:28;;;;;;;8.68;5.05;;;;;;;23.99;60.23;99766.46;1711244;83;20952;-71
2022/08/30 08:25:54;;;;;;;7.40;4.97;;;;;;;24.04;60.12;99760.75;1685976;84;21072;-73
2022/08/30 08:28:21;;;;;;;5.47;4.92;;;;;;;24.09;59.29;99769.36;1683350;84;21036;-70
2022/08/30 08:30:48;;;;;;;5.45;4.80;;;;;;;24.15;58.79;99778.45;1695680;84;21141;-73
2022/08/30 08:33:17;;;;;;;6.30;4.45;;;;;;;24.21;57.75;99775.75;1695457;84;21601;-73
2022/08/30 08:35:44;;;;;;;6.03;4.78;;;;;;;24.25;56.87;99793.74;1692528;84;21012;-74
2022/08/30 08:38:11;;;;;;;6.30;5.17;;;;;;;24.26;56.68;99790.67;1672799;83;20980;-74
2022/08/30 08:40:52;;;;;;;4.95;4.58;;;;;;;24.28;55.80;99787.56;1686511;84;21076;-74
2022/08/30 08:43:20;;;;;;;4.65;4.25;;;;;;;24.30;55.95;99774.30;1677741;84;21153;-76
2022/08/30 08:46:19;;;;;;;6.33;3.72;;;;;;;24.35;56.19;99774.08;1717191;82;21133;-74
2022/08/30 08:48:53;;;;;;;7.50;4.00;;;;;;;24.43;56.04;99776.49;1698577;83;22228;-75
2022/08/30 08:54:21;;;;;;;7.53;4.25;;;;;;;24.62;55.43;99767.95;1724465;82;21119;-74
2022/08/30 08:56:48;;;;;;;4.55;4.12;;;;;;;24.72;53.14;99784.02;1740470;82;21243;-74
2022/08/30 08:59:14;;;;;;;10.05;4.75;;;;;;;24.79;52.43;99773.03;1727604;82;21469;-76
2022/08/30 09:01:41;;;;;;;4.90;4.40;;;;;;;24.82;52.61;99771.77;1716588;83;21004;-75
2022/08/30 09:04:17;;;;;;;7.05;3.98;;;;;;;24.85;52.32;99765.56;1716882;83;21028;-72
2022/08/30 09:06:59;;;;;;;5.78;3.50;;;;;;;24.87;52.21;99769.39;1714500;83;20994;-74
2022/08/30 09:09:30;;;;;;;8.48;4.53;;;;;;;24.93;52.11;99753.69;1718127;83;21287;-74
2022/08/30 09:11:57;;;;;;;8.70;3.85;;;;;;;24.99;50.86;99748.16;1711795;83;21085;-78
2022/08/30 09:14:30;;;;;;;8.03;4.10;;;;;;;25.04;49.82;99763.08;1697198;83;21044;-75
2022/08/30 09:17:05;;;;;;;7.92;4.37;;;;;;;25.08;50.44;99761.23;1678939;84;21055;-72
2022/08/30 09:19:41;;;;;;;4.00;3.70;;;;;;;25.15;50.61;99770.30;1698065;83;21042;-71
2022/08/30 09:22:35;;;;;;;4.28;3.10;;;;;;;25.19;49.49;99765.14;1678953;84;21517;-74
2022/08/30 09:25:25;;;;;;;6.42;3.30;;;;;;;25.24;47.62;99764.67;1672123;84;21071;-76
2022/08/30 09:27:52;;;;;;;9.93;3.37;;;;;;;25.29;46.43;99763.06;1685633;85;21061;-71
2022/08/30 09:30:25;;;;;;;13.20;4.45;;;;;;;25.38;46.87;99767.87;1697497;84;21320;-71
2022/08/30 09:33:01;;;;;;;4.60;3.98;;;;;;;25.43;47.14;99766.25;1685904;85;21132;-72
2022/08/30 09:35:42;;;;;;;6.70;3.87;;;;;;;25.43;47.21;99768.44;1747871;81;21811;-73
2022/08/30 09:38:13;;;;;;;9.13;4.10;;;;;;;25.48;46.59;99757.75;1738475;81;21275;-72
2022/08/30 09:40:47;;;;;;;5.22;3.92;;;;;;;25.52;45.60;99782.08;1737259;81;20976;-72
2022/08/30 09:43:28;;;;;;;7.33;3.10;;;;;;;25.53;44.50;99759.70;1709915;84;20976;-71
2022/08/30 09:46:06;;;;;;;7.00;3.05;;;;;;;25.50;42.90;99762.36;1734122;81;21024;-74
2022/08/30 09:48:43;;;;;;;11.57;4.42;;;;;;;25.51;43.16;99755.13;1752873;81;21260;-74
2022/08/30 09:51:37;;;;;;;6.22;3.35;;;;;;;25.56;43.81;99762.38;1723343;81;21088;-81
2022/08/30 09:54:25;;;;;;;3.95;3.17;;;;;;;25.63;44.54;99776.92;1649114;82;21030;-76
2022/08/30 09:57:10;;;;;;;8.15;3.30;;;;;;;25.64;44.34;99760.62;1734050;82;21559;-74
2022/08/30 09:59:59;;;;;;;5.33;3.20;;;;;;;25.67;44.45;99757.17;1734250;81;21008;-72
2022/08/30 10:03:03;;;;;;;6.50;2.90;;;;;;;25.73;43.92;99761.29;1729369;82;21672;-71
2022/08/30 10:05:59;;;;;;;13.28;3.00;;;;;;;25.80;42.34;99760.94;1731574;82;21033;-70
2022/08/30 10:08:52;;;;;;;4.62;3.20;;;;;;;25.87;42.67;99763.89;1728735;81;21087;-71
2022/08/30 10:11:47;;;;;;;6.05;2.67;;;;;;;25.93;42.98;99761.12;1740478;81;21111;-70
2022/08/30 10:14:41;;;;;;;;;;;;;;;25.98;42.87;99769.14;1751308;81;21099;-70
2022/08/30 10:17:37;;;;;;;3.90;3.57;;;;;;;25.98;43.08;99760.06;1721595;82;21105;-71
2022/08/30 10:20:13;;;;;;;3.35;3.05;;;;;;;26.03;42.94;99756.48;1700747;82;21064;-71
2022/08/30 10:22:46;;;;;;;6.17;3.35;;;;;;;26.08;42.96;99758.19;1679660;84;20998;-72
2022/08/30 10:25:18;;;;;;;9.03;4.05;;;;;;;26.13;42.98;99779.19;1740785;81;21044;-70
2022/08/30 10:27:59;;;;;;;3.65;3.25;;;;;;;26.13;43.43;99755.18;1712269;82;21047;-69
2022/08/30 10:30:25;;;;;;;9.95;3.47;;;;;;;26.13;43.40;99759.89;1713360;82;21241;-71
2022/08/30 10:33:01;;;;;;;5.85;3.25;;;;;;;26.17;43.00;99785.02;1737315;81;21012;-70
2022/08/30 10:35:38;;;;;;;3.52;3.02;;;;;;;26.16;43.29;99775.14;1711219;82;21028;-70
2022/08/30 10:38:19;;;;;;;8.65;3.52;;;;;;;26.15;42.02;99779.05;1709380;84;21093;-69
2022/08/30 10:44:09;;;;;;;6.40;2.65;;;;;;;26.21;42.73;99764.44;1707017;82;21631;-72
2022/08/30 10:47:15;;;;;;;12.18;3.45;;;;;;;26.22;42.86;99772.40;1733575;81;21557;-70
2022/08/30 10:49:44;;;;;;;5.37;3.05;;;;;;;26.24;43.05;99774.20;1720232;82;21023;-71
2022/08/30 10:52:25;;;;;;;5.47;2.90;;;;;;;26.28;42.98;99755.80;1697659;83;21123;-72
2022/08/30 10:54:59;;;;;;;5.08;2.83;;;;;;;26.32;43.22;99760.86;1710191;82;21024;-71
2022/08/30 10:57:26;;;;;;;5.65;3.85;;;;;;;26.42;43.14;99752.64;1730143;81;21314;-71
2022/08/30 11:00:09;;;;;;;9.60;3.05;;;;;;;26.51;42.31;99766.27;1729539;81;21559;-70
2022/08/30 11:03:14;;;;;;;5.75;2.65;;;;;;;26.56;41.99;99761.29;1749598;81;21083;-71
2022/08/30 11:05:53;;;;;;;8.30;3.10;;;;;;;26.63;41.66;99769.73;1711318;82;21059;-71
2022/08/30 11:08:55;;;;;;;8.30;3.95;;;;;;;26.68;41.94;99759.02;1757602;81;21575;-71
2022/08/30 11:12:03;;;;;;;8.10;3.05;;;;;;;26.70;42.13;99763.03;1748534;81;22239;-72
2022/08/30 11:14:31;;;;;;;3.45;3.15;;;;;;;26.71;42.24;99753.61;1709424;82;21071;-73
2022/08/30 11:16:58;;;;;;;5.15;3.55;;;;;;;26.80;42.48;99756.18;1734938;81;21044;-77
2022/08/30 11:19:38;;;;;;;3.45;2.80;;;;;;;26.86;42.45;99747.28;1756773;81;21302;-75
2022/08/30 11:22:14;;;;;;;9.78;3.72;;;;;;;26.93;42.37;99737.59;1763981;81;21053;-72
2022/08/30 11:25:14;;;;;;;7.62;3.30;;;;;;;26.99;41.42;99737.55;1759902;81;21983;-71
2022/08/30 11:27:55;;;;;;;4.17;2.72;;;;;;;27.08;41.19;99744.48;1735188;81;20972;-72
2022/08/30 11:30:31;;;;;;;7.67;3.50;;;;;;;27.20;40.86;99738.83;1710092;83;21558;-71
2022/08/30 11:33:05;;;;;;;2.92;2.70;;;;;;;27.30;40.61;99741.61;1724375;82;21059;-70
2022/08/30 11:35:45;;;;;;;5.72;2.90;;;;;;;27.34;40.08;99736.39;1713701;83;21069;-71
2022/08/30 11:38:32;;;;;;;2.83;2.62;;;;;;;27.39;39.96;99733.12;1719393;82;21268;-71
2022/08/30 11:41:15;;;;;;;4.35;3.95;;;;;;;27.44;39.58;99740.55;1712179;83;21032;-71
2022/08/30 11:43:45;;;;;;;;;;;;;;;27.46;39.66;99724.42;1725366;83;21052;-70
2022/08/30 11:46:29;;;;;;;4.78;3.47;;;;;;;27.53;39.61;99741.17;1702552;83;20087;-72
2022/08/30 11:49:19;;;;;;;4.00;2.87;;;;;;;27.54;39.67;99733.11;1678177;84;21111;-71
2022/08/30 11:52:07;;;;;;;7.83;3.45;;;;;;;27.53;39.90;99732.11;1696381;83;21155;-71